Potomac, Virginia
Current Conditions -  °F | °C
As of 8:52 AM on Saturday 22 Nov 2014 (Local Time) from KDCA Reporting Station
Few Clouds Few Clouds  
Wind Chill: 25°   Ceiling: Unl
Heat Index: 33°   Visibility: 10mi
Dew Point: 20°   Wind: 10mph
Humidity: 59%   Direction: 180°S
Pressure: 30.53"   Gusts: NA
Location:  38.8194°N, 77.0596°W
Report Text: KDCA 221352Z 18009KT 10SM FEW200 01/M07 A3053 RMK AO2 SLP338 T00061067
Loading
Personal Weather Stations






























Interactive Weather Map New forecast layout! Learn more

10-Day Weather Forecast

Advertisements
Track Severe Weather on mobile